EDT,Max TemperatureF,Mean TemperatureF,Min TemperatureF,Max Dew PointF,MeanDew PointF,Min DewpointF,Max Humidity, Mean Humidity, Min Humidity, Max Sea Level PressureIn, Mean Sea Level PressureIn, Min Sea Level PressureIn, Max VisibilityMiles, Mean VisibilityMiles, Min VisibilityMiles, Max Wind SpeedMPH, Mean Wind SpeedMPH, Max Gust SpeedMPH,PrecipitationIn, CloudCover, Events, WindDirDegrees
2012-9-1,89,80,71,72,70,68,94,79,52,30.20,30.15,30.11,10,10,5,8,1,,0.36,1,Rain,10
2012-9-2,89,80,71,77,70,68,94,84,55,30.11,30.05,29.97,10,9,1,10,1,,0.93,2,Rain,74
2012-9-3,82,76,71,73,70,68,94,89,74,30.07,30.03,29.98,10,7,0,15,2,20,1.29,7,Fog-Rain,99
2012-9-4,80,76,71,73,71,70,94,90,78,30.04,30.00,29.95,10,5,2,8,2,,0.38,8,Rain,167
2012-9-5,80,76,71,73,71,70,94,88,78,29.97,29.94,29.89,10,6,3,7,1,,0.01,7,Rain,193
2012-9-6,86,78,69,72,70,68,94,84,58,30.00,29.95,29.90,10,7,1,12,1,22,0.00,5,Rain,279
2012-9-7,86,75,64,73,68,63,94,77,55,30.01,29.97,29.89,10,6,0,7,1,,0.00,3,Fog,122
2012-9-8,82,74,64,73,66,54,94,81,54,29.90,29.82,29.75,10,7,1,14,1,33,0.00,4,Rain,239
2012-9-9,77,66,55,55,52,46,88,62,34,30.05,29.95,29.89,10,10,10,9,4,16,0.00,2,,340
2012-9-10,77,65,53,55,52,46,94,66,34,30.20,30.11,30.04,10,10,10,8,2,,0.00,1,,355
2012-9-11,73,63,53,59,53,48,88,69,46,30.34,30.28,30.21,10,10,10,7,1,,0.00,2,,123
2012-9-12,78,66,55,59,56,52,94,72,47,30.39,30.34,30.29,10,10,10,7,1,,0.00,1,,114
2012-9-13,77,64,51,59,53,46,94,70,34,30.40,30.34,30.28,10,10,10,8,1,,0.00,0,,86
2012-9-14,78,66,53,63,56,50,94,75,44,30.31,30.25,30.18,10,10,10,6,0,,0.00,0,,198
2012-9-15,80,70,59,64,60,55,94,74,51,30.23,30.18,30.13,10,10,10,8,1,,0.00,3,Rain,62
2012-9-16,69,64,59,63,58,55,94,87,78,30.20,30.15,30.11,10,7,1,9,4,,0.01,8,Rain,67
2012-9-17,68,64,60,64,61,59,94,90,88,30.14,30.06,29.93,10,4,0,10,1,16,0.54,8,Fog-Rain,83
2012-9-18,73,68,64,70,65,55,94,88,73,29.90,29.79,29.73,10,9,1,14,7,33,1.00,7,Rain,186
2012-9-19,71,65,59,55,54,52,88,71,50,30.16,30.06,29.89,10,10,10,8,3,,0.00,4,,4
2012-9-20,73,63,53,61,56,50,94,78,57,30.19,30.13,30.07,10,10,5,7,1,,0.00,4,,181
2012-9-21,78,66,53,63,59,52,94,77,51,30.12,30.06,30.00,10,9,1,8,1,,0.00,1,,181
2012-9-22,80,70,60,64,59,46,94,73,39,30.02,29.97,29.90,10,7,0,8,1,16,0.00,3,Fog,257
2012-9-23,71,61,51,50,40,27,82,51,19,30.18,30.11,30.02,10,10,10,8,2,,0.00,0,,358
2012-9-24,68,55,42,48,40,36,87,60,30,30.27,30.21,30.17,10,10,10,7,1,,0.00,0,,141
2012-9-25,71,56,42,57,49,39,94,77,52,30.25,30.21,30.16,10,10,10,7,1,,0.00,1,,214
2012-9-26,80,66,53,64,58,52,94,78,51,30.23,30.19,30.16,10,10,10,7,1,,0.00,0,,179
2012-9-27,82,68,55,64,59,52,94,74,37,30.22,30.17,30.12,10,9,1,6,1,,0.00,1,,263
2012-9-28,78,68,59,64,62,55,94,82,57,30.14,30.08,30.02,10,8,2,12,1,17,0.34,3,Rain,231
2012-9-29,69,64,60,63,61,59,94,92,78,30.04,29.98,29.92,10,6,0,7,1,,1.10,8,Fog-Rain,85
2012-9-30,69,58,46,57,52,45,94,77,46,29.95,29.92,29.87,10,10,3,7,1,,0.00,0,,213